Strona główna
METAR-TAF:

METAR-TAF

Lotnisko :

Port lotniczy Pardubice

Pardubice, Czechy

Szerokość geograficzna: 50-00-48N, Długość geograficzna: 15-44-19E, wysokość: 226 m

Aktualna obserwacja pogody

Raport powstał 1 godzina i 0 minut temu, godzina 09:00 UTC
Wiatr 3 kt z kierunków zmiennych
Temperatura 27°C
Wilgotność 39%
Ciśnienie 1019 hPa
Widzialność 10 km lub więcej
Brak chmur poniżej 1500 m i brak chmur cumulonimbus

METAR: LKPD 180900Z VRB03KT CAVOK 27/12 Q1019 NOSIG RMK BLU BLU

czas: 12:00 (10:00 UTC)

Prognoza

Raport powstał 5 godziny i 0 minut temu, godzina 05:00 UTC
Prognoza ważna od 18 godzina 06 UTC do 19 godzina 06 UTC
Wiatr 4 kt od północno-północny zachód
Widzialność 10 km lub więcej
Brak chmur poniżej 1500 m i brak chmur cumulonimbus
Przejściowo
od 18 godzina 10 UTC do 18 godzina 17 UTC
Wiatr 6 kt od północno-północny wschód
Rozproszone chmury na wysokości 4000 ft, Cumulusy wypiętrznone.

TAF: LKPD 180500Z 1806/1906 34004KT CAVOK TEMPO 1810/1817 03006KT SCT040TCU

Obserwacja i prognoza pogody dla ponad 4000 lotnisk (raport METAR i TAF).

Dostępne stacje oznaczono żółtymi i czerwonymi punktami na mapie.

Najedź kursorem aby zobaczyć nazwę stacji.

Kliknij aby zobaczyć obserwacje i prognozy pogody.

Aby zmienić mapę: kliknij na zielony przycisk z czarnym krzyżykiem, aby powiększyć; na zielony przycisk z myślnikiem, aby pomniejszyć; na zielone strzałki, aby przejść do map sąsiednich.


METAR-TAF: